Time;durP1;ratioP1;P1;durP2;ratioP2;P2;SDS_P1;SDS_P2;PMS_P1;PMS_P2;Temp;Humidity;BMP_temperature;BMP_pressure;BME280_temperature;BME280_humidity;BME280_pressure;Samples;Min_cycle;Max_cycle;Signal;HPM_P1;HPM_P2
2023/10/14 00:02:23;;;;;;;3.22;0.88;;;;;;;;;;5075357;28;20055;-79
2023/10/14 00:04:52;;;;;;;4.63;0.70;;;;;;;;;;5075556;28;20052;-79
2023/10/14 00:07:20;;;;;;;4.93;0.75;;;;;;;;;;5073678;28;20040;-79
2023/10/14 00:09:50;;;;;;;3.40;0.80;;;;;;;;;;5080386;28;20049;-79
2023/10/14 00:12:16;;;;;;;5.07;0.80;;;;;;;;;;5077967;28;20052;-80
2023/10/14 00:14:46;;;;;;;5.93;0.90;;;;;;;;;;5091026;28;20084;-79
2023/10/14 00:17:17;;;;;;;5.20;0.65;;;;;;;;;;5076294;28;20482;-80
2023/10/14 00:19:49;;;;;;;4.05;0.57;;;;;;;;;;5075743;28;20063;-80
2023/10/14 00:22:15;;;;;;;2.65;0.70;;;;;;;;;;5076626;28;20051;-80
2023/10/14 00:24:43;;;;;;;2.63;0.50;;;;;;;;;;5077432;28;20092;-80
2023/10/14 00:27:09;;;;;;;5.10;0.80;;;;;;;;;;5078498;28;20445;-80
2023/10/14 00:29:36;;;;;;;5.78;0.82;;;;;;;;;;5081900;28;20489;-80
2023/10/14 00:32:05;;;;;;;5.03;0.80;;;;;;;;;;5077545;28;20045;-79
2023/10/14 00:34:31;;;;;;;5.00;0.88;;;;;;;;;;5077694;28;20037;-79
2023/10/14 00:36:57;;;;;;;6.07;0.80;;;;;;;;;;5079653;28;20052;-79
2023/10/14 00:39:26;;;;;;;6.65;0.90;;;;;;;;;;5091252;28;20044;-80
2023/10/14 00:41:53;;;;;;;4.38;0.90;;;;;;;;;;5061514;28;20441;-80
2023/10/14 00:44:20;;;;;;;5.75;1.00;;;;;;;;;;5068300;28;20398;-80
2023/10/14 00:46:49;;;;;;;8.07;1.30;;;;;;;;;;5071111;28;20098;-79
2023/10/14 00:49:31;;;;;;;9.82;1.17;;;;;;;;;;5071718;28;20075;-80
2023/10/14 00:51:59;;;;;;;6.10;1.00;;;;;;;;;;5074995;28;20043;-79
2023/10/14 00:55:13;;;;;;;8.45;1.20;;;;;;;;;;5070211;28;20056;-79
2023/10/14 00:59:48;;;;;;;9.80;1.73;;;;;;;;;;5070726;28;20397;-80
2023/10/14 01:02:14;;;;;;;11.25;1.55;;;;;;;;;;5066626;28;20371;-79
2023/10/14 01:04:54;;;;;;;7.65;1.67;;;;;;;;;;5075153;28;20055;-80
2023/10/14 01:07:21;;;;;;;8.20;1.40;;;;;;;;;;5091376;28;20078;-79
2023/10/14 01:12:37;;;;;;;10.52;1.80;;;;;;;;;;5063034;28;20048;-79
2023/10/14 01:15:12;;;;;;;10.18;1.65;;;;;;;;;;5073799;28;20485;-80
2023/10/14 01:17:42;;;;;;;10.82;1.80;;;;;;;;;;5074899;28;20055;-80
2023/10/14 01:22:40;;;;;;;10.75;1.73;;;;;;;;;;5061845;28;20036;-80
2023/10/14 01:25:12;;;;;;;14.02;1.90;;;;;;;;;;5083123;28;20040;-80
2023/10/14 01:27:42;;;;;;;13.68;1.75;;;;;;;;;;5075838;28;20052;-80
2023/10/14 01:30:11;;;;;;;12.50;1.80;;;;;;;;;;5071075;28;20115;-80
2023/10/14 01:32:48;;;;;;;11.52;1.55;;;;;;;;;;5075273;28;20076;-79
2023/10/14 01:35:27;;;;;;;10.80;1.40;;;;;;;;;;5079490;28;20417;-79
2023/10/14 01:37:56;;;;;;;9.35;1.52;;;;;;;;;;5075725;28;20036;-79
2023/10/14 01:42:50;;;;;;;9.90;1.58;;;;;;;;;;5077189;28;20075;-78
2023/10/14 01:45:20;;;;;;;10.20;1.60;;;;;;;;;;5075027;28;20054;-79
2023/10/14 01:47:50;;;;;;;12.35;2.10;;;;;;;;;;5074452;28;20045;-79
2023/10/14 01:50:17;;;;;;;12.98;1.92;;;;;;;;;;5074865;28;20048;-79
2023/10/14 01:52:43;;;;;;;11.30;2.10;;;;;;;;;;5090981;28;20060;-79
2023/10/14 01:55:10;;;;;;;12.00;1.88;;;;;;;;;;5074193;28;20393;-79
2023/10/14 01:57:36;;;;;;;14.55;2.00;;;;;;;;;;5075114;28;20052;-79
2023/10/14 02:00:16;;;;;;;10.68;1.98;;;;;;;;;;5075734;28;20389;-79
2023/10/14 02:02:59;;;;;;;11.05;2.17;;;;;;;;;;5056130;28;20520;-79
2023/10/14 02:05:27;;;;;;;10.02;1.70;;;;;;;;;;5061844;28;20047;-79
2023/10/14 02:07:53;;;;;;;10.82;1.75;;;;;;;;;;5075628;28;20044;-79
2023/10/14 02:10:19;;;;;;;11.98;1.90;;;;;;;;;;5070778;28;20053;-79
2023/10/14 02:12:45;;;;;;;16.00;1.98;;;;;;;;;;5073442;28;20036;-79
2023/10/14 02:15:13;;;;;;;17.00;2.20;;;;;;;;;;5075555;28;20037;-79
2023/10/14 02:17:40;;;;;;;12.77;2.20;;;;;;;;;;5082157;28;20041;-79
2023/10/14 02:20:19;;;;;;;9.85;2.08;;;;;;;;;;5079857;28;20056;-80
2023/10/14 02:22:46;;;;;;;14.68;2.38;;;;;;;;;;5075711;28;20044;-79
2023/10/14 02:25:15;;;;;;;13.07;2.20;;;;;;;;;;5075054;28;20041;-79
2023/10/14 02:27:43;;;;;;;18.02;2.40;;;;;;;;;;5073863;28;20040;-79
2023/10/14 02:30:10;;;;;;;16.20;2.17;;;;;;;;;;5068792;28;20052;-79
2023/10/14 02:32:36;;;;;;;10.95;2.03;;;;;;;;;;5075018;28;20486;-79
2023/10/14 02:35:02;;;;;;;13.40;2.13;;;;;;;;;;5073556;28;20044;-79
2023/10/14 02:37:30;;;;;;;16.83;1.90;;;;;;;;;;5089525;28;20033;-79
2023/10/14 02:39:58;;;;;;;13.00;1.90;;;;;;;;;;5074628;28;20414;-79
2023/10/14 02:42:25;;;;;;;15.05;2.53;;;;;;;;;;5083316;28;20056;-79
2023/10/14 02:44:54;;;;;;;13.85;1.70;;;;;;;;;;5068098;28;20079;-79
2023/10/14 02:47:21;;;;;;;12.32;2.15;;;;;;;;;;5074049;28;20043;-79
2023/10/14 02:49:54;;;;;;;14.98;1.80;;;;;;;;;;5074895;28;20143;-79
2023/10/14 02:52:29;;;;;;;9.40;1.83;;;;;;;;;;5075165;28;20079;-79
2023/10/14 02:54:59;;;;;;;12.55;1.95;;;;;;;;;;5062258;28;20040;-79
2023/10/14 02:57:28;;;;;;;14.07;2.00;;;;;;;;;;5072789;28;20470;-79
2023/10/14 02:59:57;;;;;;;14.73;2.40;;;;;;;;;;5067076;28;20041;-79
2023/10/14 03:02:27;;;;;;;16.63;2.15;;;;;;;;;;5062858;28;20139;-79
2023/10/14 03:07:28;;;;;;;13.43;2.35;;;;;;;;;;5070868;28;20091;-80
2023/10/14 03:09:58;;;;;;;16.92;2.85;;;;;;;;;;5073039;28;20036;-80
2023/10/14 03:12:24;;;;;;;14.23;1.83;;;;;;;;;;5069506;28;20055;-80
2023/10/14 03:14:52;;;;;;;15.02;2.22;;;;;;;;;;5076441;28;20051;-80
2023/10/14 03:17:25;;;;;;;14.32;2.28;;;;;;;;;;5072977;28;20055;-80
2023/10/14 03:19:54;;;;;;;14.25;1.98;;;;;;;;;;5071784;28;20110;-80
2023/10/14 03:22:25;;;;;;;14.07;2.08;;;;;;;;;;5054502;28;20128;-80
2023/10/14 03:24:51;;;;;;;;;;;;;;;;;;5057728;28;20485;-79
2023/10/14 03:27:19;;;;;;;16.63;2.17;;;;;;;;;;5067405;28;19928;-79
2023/10/14 03:29:47;;;;;;;13.60;2.15;;;;;;;;;;5069894;28;20049;-80
2023/10/14 03:32:16;;;;;;;12.48;2.15;;;;;;;;;;5078499;28;20075;-80
2023/10/14 03:34:43;;;;;;;14.80;2.22;;;;;;;;;;5084429;28;20508;-80
2023/10/14 03:37:25;;;;;;;11.85;2.20;;;;;;;;;;5076638;28;20447;-80
2023/10/14 03:42:51;;;;;;;15.98;2.33;;;;;;;;;;5074618;28;20053;-79
2023/10/14 03:45:20;;;;;;;14.77;2.50;;;;;;;;;;5072458;28;20413;-79
2023/10/14 03:47:51;;;;;;;13.95;2.22;;;;;;;;;;5073877;28;20501;-79
2023/10/14 03:50:23;;;;;;;15.20;2.13;;;;;;;;;;5073336;28;20053;-79
2023/10/14 03:52:51;;;;;;;15.18;2.30;;;;;;;;;;5082186;28;20040;-79
2023/10/14 03:55:20;;;;;;;12.10;1.90;;;;;;;;;;5072876;28;20052;-79
2023/10/14 03:57:51;;;;;;;12.00;1.90;;;;;;;;;;5077717;28;20044;-79
2023/10/14 04:00:27;;;;;;;16.50;2.08;;;;;;;;;;5077491;28;20040;-79
2023/10/14 04:02:57;;;;;;;17.38;2.78;;;;;;;;;;5074110;28;20048;-79
2023/10/14 04:05:27;;;;;;;15.52;2.05;;;;;;;;;;5066807;28;20162;-79
2023/10/14 04:07:54;;;;;;;10.55;2.35;;;;;;;;;;5065946;28;20065;-79
2023/10/14 04:10:23;;;;;;;14.25;2.22;;;;;;;;;;5073155;28;20094;-79
2023/10/14 04:12:56;;;;;;;11.73;1.77;;;;;;;;;;5072757;28;20037;-79
2023/10/14 04:18:05;;;;;;;14.57;2.30;;;;;;;;;;5066556;28;20045;-79
2023/10/14 04:20:37;;;;;;;15.95;2.00;;;;;;;;;;5072630;28;20062;-79
2023/10/14 04:23:14;;;;;;;14.52;2.30;;;;;;;;;;5072381;28;20067;-80
2023/10/14 04:25:43;;;;;;;11.82;1.85;;;;;;;;;;5078675;28;20040;-79
2023/10/14 04:28:25;;;;;;;12.07;1.90;;;;;;;;;;5076208;28;20043;-79
2023/10/14 04:30:51;;;;;;;14.30;1.90;;;;;;;;;;5076555;28;20485;-79
2023/10/14 04:33:22;;;;;;;14.80;1.90;;;;;;;;;;5069891;28;20044;-79
2023/10/14 04:36:08;;;;;;;15.50;2.53;;;;;;;;;;5072339;28;20045;-79
2023/10/14 04:38:43;;;;;;;12.65;2.00;;;;;;;;;;5060201;28;20076;-79
2023/10/14 04:41:24;;;;;;;16.08;2.42;;;;;;;;;;5073240;28;20426;-79
2023/10/14 04:44:00;;;;;;;16.67;2.10;;;;;;;;;;5069397;28;20166;-79
2023/10/14 04:46:33;;;;;;;15.45;1.90;;;;;;;;;;5064159;28;20053;-79
2023/10/14 04:49:06;;;;;;;14.80;1.95;;;;;;;;;;5075233;28;20055;-79
2023/10/14 04:51:38;;;;;;;15.80;2.00;;;;;;;;;;5082979;28;20052;-79
2023/10/14 04:54:09;;;;;;;13.40;1.98;;;;;;;;;;5080054;28;20052;-79
2023/10/14 04:56:36;;;;;;;15.35;2.13;;;;;;;;;;5075391;28;20052;-79
2023/10/14 04:59:05;;;;;;;15.75;2.28;;;;;;;;;;5084450;28;20044;-79
2023/10/14 05:01:31;;;;;;;16.45;2.60;;;;;;;;;;5075573;28;20052;-79
2023/10/14 05:03:58;;;;;;;15.60;2.28;;;;;;;;;;5074880;28;20425;-79
2023/10/14 05:06:29;;;;;;;10.98;1.70;;;;;;;;;;5073130;28;20055;-79
2023/10/14 05:08:55;;;;;;;15.55;2.45;;;;;;;;;;5075758;28;20044;-79
2023/10/14 05:11:25;;;;;;;15.65;2.10;;;;;;;;;;5076236;28;20066;-79
2023/10/14 05:14:10;;;;;;;14.77;2.17;;;;;;;;;;5073472;28;20056;-79
2023/10/14 05:19:35;;;;;;;14.68;2.40;;;;;;;;;;5080848;28;20048;-79
2023/10/14 05:24:31;;;;;;;10.13;1.95;;;;;;;;;;5054965;28;20057;-79
2023/10/14 05:27:00;;;;;;;16.17;1.92;;;;;;;;;;5074448;28;20044;-79
2023/10/14 05:29:27;;;;;;;15.00;2.55;;;;;;;;;;5075353;28;20059;-79
2023/10/14 05:31:53;;;;;;;12.65;2.40;;;;;;;;;;5070557;28;20171;-79
2023/10/14 05:34:26;;;;;;;16.75;2.35;;;;;;;;;;5079056;28;20045;-79
2023/10/14 05:36:55;;;;;;;14.57;2.38;;;;;;;;;;5081584;28;20040;-79
2023/10/14 05:39:22;;;;;;;12.60;1.90;;;;;;;;;;5076495;28;20375;-79
2023/10/14 05:41:48;;;;;;;14.13;2.10;;;;;;;;;;5075296;28;20056;-78
2023/10/14 05:44:15;;;;;;;13.85;1.98;;;;;;;;;;5073273;28;20048;-78
2023/10/14 05:46:41;;;;;;;17.48;2.72;;;;;;;;;;5074616;28;20041;-78
2023/10/14 05:49:07;;;;;;;16.98;2.30;;;;;;;;;;5073975;28;20112;-78
2023/10/14 05:51:35;;;;;;;20.80;3.15;;;;;;;;;;5074628;28;20466;-78
2023/10/14 05:54:01;;;;;;;12.70;2.40;;;;;;;;;;5074415;28;20525;-78
2023/10/14 05:56:28;;;;;;;15.20;2.30;;;;;;;;;;5073926;28;20436;-78
2023/10/14 05:58:54;;;;;;;18.05;2.30;;;;;;;;;;5074254;28;20036;-79
2023/10/14 06:01:21;;;;;;;15.38;2.50;;;;;;;;;;5073701;28;20047;-79
2023/10/14 06:03:47;;;;;;;19.65;2.53;;;;;;;;;;5073048;28;20101;-78
2023/10/14 06:06:21;;;;;;;18.20;2.63;;;;;;;;;;5068837;28;20036;-78
2023/10/14 06:08:49;;;;;;;15.38;2.53;;;;;;;;;;5072565;28;20052;-78
2023/10/14 06:11:16;;;;;;;16.40;2.17;;;;;;;;;;5073725;28;20055;-78
2023/10/14 06:13:43;;;;;;;17.98;2.40;;;;;;;;;;5072677;28;20421;-78
2023/10/14 06:16:09;;;;;;;15.60;2.45;;;;;;;;;;5075988;28;20033;-78
2023/10/14 06:18:39;;;;;;;15.93;2.70;;;;;;;;;;5070817;28;20051;-78
2023/10/14 06:21:06;;;;;;;18.90;2.63;;;;;;;;;;5066601;28;20391;-78
2023/10/14 06:23:32;;;;;;;14.88;2.63;;;;;;;;;;5072731;28;20056;-78
2023/10/14 06:25:59;;;;;;;17.77;2.42;;;;;;;;;;5075606;28;20365;-78
2023/10/14 06:28:25;;;;;;;16.40;1.90;;;;;;;;;;5072644;28;20059;-79
2023/10/14 06:30:51;;;;;;;21.13;3.08;;;;;;;;;;5087763;28;20457;-78
2023/10/14 06:33:17;;;;;;;14.93;2.10;;;;;;;;;;5071838;28;20048;-78
2023/10/14 06:35:44;;;;;;;12.65;2.13;;;;;;;;;;5069795;28;20044;-78
2023/10/14 06:38:21;;;;;;;19.13;2.53;;;;;;;;;;5066692;28;20477;-78
2023/10/14 06:40:54;;;;;;;18.50;2.60;;;;;;;;;;5072257;28;20045;-78
2023/10/14 06:43:22;;;;;;;16.00;2.13;;;;;;;;;;5087100;28;20132;-78
2023/10/14 06:45:51;;;;;;;20.40;2.67;;;;;;;;;;5070604;28;20449;-78
2023/10/14 06:48:17;;;;;;;14.60;2.08;;;;;;;;;;5072249;28;20056;-78
2023/10/14 06:50:47;;;;;;;15.57;2.70;;;;;;;;;;5070874;28;20409;-78
2023/10/14 06:53:14;;;;;;;15.48;2.08;;;;;;;;;;5072337;28;20044;-78
2023/10/14 06:55:41;;;;;;;18.38;2.47;;;;;;;;;;5080631;28;20538;-78
2023/10/14 06:58:08;;;;;;;11.88;2.08;;;;;;;;;;5073322;28;20052;-78
2023/10/14 07:00:37;;;;;;;14.10;2.47;;;;;;;;;;5071000;28;20041;-78
2023/10/14 07:03:03;;;;;;;18.52;2.88;;;;;;;;;;5075685;28;20516;-78
2023/10/14 07:05:30;;;;;;;13.55;2.50;;;;;;;;;;5074453;28;20041;-78
2023/10/14 07:07:57;;;;;;;16.08;2.65;;;;;;;;;;5072835;28;20383;-78
2023/10/14 07:10:27;;;;;;;14.77;2.53;;;;;;;;;;5071710;28;20056;-78
2023/10/14 07:13:00;;;;;;;17.60;2.50;;;;;;;;;;5071471;28;20064;-78
2023/10/14 07:15:27;;;;;;;20.38;2.90;;;;;;;;;;5073518;28;20119;-78
2023/10/14 07:17:56;;;;;;;14.48;2.55;;;;;;;;;;5073560;28;20055;-78
2023/10/14 07:20:22;;;;;;;16.27;2.33;;;;;;;;;;5088696;28;20123;-78
2023/10/14 07:22:49;;;;;;;17.30;3.20;;;;;;;;;;5072017;28;20064;-78
2023/10/14 07:25:15;;;;;;;14.45;2.42;;;;;;;;;;5070160;28;20041;-78
2023/10/14 07:27:41;;;;;;;17.20;2.72;;;;;;;;;;5071409;28;20033;-78
2023/10/14 07:30:14;;;;;;;16.25;2.70;;;;;;;;;;5072987;28;20040;-78
2023/10/14 07:32:43;;;;;;;13.45;2.15;;;;;;;;;;5071581;28;20089;-78
2023/10/14 07:35:17;;;;;;;15.02;2.80;;;;;;;;;;5072570;28;20075;-79
2023/10/14 07:37:48;;;;;;;15.20;2.10;;;;;;;;;;5071495;28;20040;-78
2023/10/14 07:40:24;;;;;;;18.42;2.55;;;;;;;;;;5071697;28;20055;-78
2023/10/14 07:42:54;;;;;;;13.50;2.20;;;;;;;;;;5070843;28;20051;-78
2023/10/14 07:45:20;;;;;;;16.92;3.38;;;;;;;;;;5072057;28;20405;-78
2023/10/14 07:47:47;;;;;;;16.80;2.25;;;;;;;;;;5073579;28;20045;-78
2023/10/14 07:50:14;;;;;;;11.25;2.55;;;;;;;;;;5073559;28;20045;-78
2023/10/14 07:52:40;;;;;;;15.23;2.40;;;;;;;;;;5072419;28;20040;-78
2023/10/14 07:55:10;;;;;;;15.68;3.00;;;;;;;;;;5070245;28;20178;-78
2023/10/14 07:57:40;;;;;;;13.77;2.05;;;;;;;;;;5072171;28;20137;-79
2023/10/14 08:00:12;;;;;;;17.85;2.60;;;;;;;;;;5071776;28;20059;-79
2023/10/14 08:02:38;;;;;;;17.05;2.80;;;;;;;;;;5070679;28;20060;-79
2023/10/14 08:05:06;;;;;;;14.40;2.35;;;;;;;;;;5071929;28;20051;-78
2023/10/14 08:07:40;;;;;;;13.95;2.72;;;;;;;;;;5068669;28;20119;-79
2023/10/14 08:10:21;;;;;;;15.65;2.47;;;;;;;;;;5064544;28;20084;-79
2023/10/14 08:12:50;;;;;;;14.80;2.70;;;;;;;;;;5085875;28;20040;-79
2023/10/14 08:15:17;;;;;;;14.68;2.55;;;;;;;;;;5075496;28;20032;-79
2023/10/14 08:17:44;;;;;;;17.17;2.42;;;;;;;;;;5089426;28;20166;-79
2023/10/14 08:20:13;;;;;;;17.13;2.50;;;;;;;;;;5079683;28;21513;-79
2023/10/14 08:22:46;;;;;;;17.52;2.70;;;;;;;;;;5083014;28;20053;-78
2023/10/14 08:25:19;;;;;;;18.73;3.75;;;;;;;;;;5073982;28;20052;-78
2023/10/14 08:27:46;;;;;;;13.57;2.40;;;;;;;;;;5072512;28;20048;-79
2023/10/14 08:30:12;;;;;;;12.35;2.33;;;;;;;;;;5075987;28;20044;-78
2023/10/14 08:32:39;;;;;;;15.10;1.98;;;;;;;;;;5072499;28;20048;-78
2023/10/14 08:35:14;;;;;;;18.48;2.78;;;;;;;;;;5081861;28;20098;-79
2023/10/14 08:37:41;;;;;;;15.07;2.15;;;;;;;;;;5077646;28;20370;-78
2023/10/14 08:40:08;;;;;;;17.20;2.50;;;;;;;;;;5083785;28;20443;-78
2023/10/14 08:42:36;;;;;;;14.40;2.30;;;;;;;;;;5089101;28;20423;-79
2023/10/14 08:45:06;;;;;;;20.45;2.72;;;;;;;;;;5086016;28;20052;-79
2023/10/14 08:47:35;;;;;;;19.63;2.35;;;;;;;;;;5072767;28;20132;-78
2023/10/14 08:50:02;;;;;;;12.88;2.47;;;;;;;;;;5087920;28;20044;-78
2023/10/14 08:52:30;;;;;;;15.63;2.28;;;;;;;;;;5061686;28;20127;-78
2023/10/14 08:54:56;;;;;;;13.13;2.80;;;;;;;;;;5075221;28;20397;-77
2023/10/14 08:57:22;;;;;;;19.70;2.50;;;;;;;;;;5069549;28;20056;-78
2023/10/14 08:59:49;;;;;;;17.00;2.90;;;;;;;;;;5083343;28;20078;-78
2023/10/14 09:02:15;;;;;;;14.60;2.67;;;;;;;;;;5069893;28;20052;-78
2023/10/14 09:04:41;;;;;;;14.55;2.38;;;;;;;;;;5081777;28;20056;-78
2023/10/14 09:07:13;;;;;;;14.98;2.78;;;;;;;;;;5070024;28;20047;-78
2023/10/14 09:09:39;;;;;;;14.27;2.70;;;;;;;;;;5073844;28;20040;-78
2023/10/14 09:12:10;;;;;;;17.60;2.90;;;;;;;;;;5073809;28;20350;-78
2023/10/14 09:14:37;;;;;;;15.25;2.30;;;;;;;;;;5081974;28;20055;-78
2023/10/14 09:17:10;;;;;;;19.67;2.75;;;;;;;;;;5064634;28;20473;-78
2023/10/14 09:19:43;;;;;;;13.05;2.25;;;;;;;;;;5075889;28;20141;-78
2023/10/14 09:22:19;;;;;;;17.15;2.65;;;;;;;;;;5084624;28;20052;-78
2023/10/14 09:24:45;;;;;;;18.50;2.60;;;;;;;;;;5072756;28;20170;-78
2023/10/14 09:27:11;;;;;;;15.52;2.47;;;;;;;;;;5072495;28;20052;-78
2023/10/14 09:29:37;;;;;;;14.30;2.20;;;;;;;;;;5072648;28;20040;-78
2023/10/14 09:32:05;;;;;;;14.13;2.58;;;;;;;;;;5085953;28;20040;-78
2023/10/14 09:34:31;;;;;;;14.65;2.40;;;;;;;;;;5090242;28;20618;-78
2023/10/14 09:36:58;;;;;;;14.52;2.08;;;;;;;;;;5092313;28;20048;-78
2023/10/14 09:39:25;;;;;;;11.80;2.42;;;;;;;;;;5089076;28;20401;-79
2023/10/14 09:41:54;;;;;;;14.13;1.90;;;;;;;;;;5089934;28;20044;-78
2023/10/14 09:44:22;;;;;;;13.27;1.83;;;;;;;;;;5089940;28;20120;-78
2023/10/14 09:46:49;;;;;;;8.68;1.52;;;;;;;;;;5072681;28;20045;-78
2023/10/14 09:49:16;;;;;;;12.10;1.90;;;;;;;;;;5076640;28;20044;-78
2023/10/14 09:51:48;;;;;;;12.55;2.13;;;;;;;;;;5078095;28;20379;-77
2023/10/14 09:54:15;;;;;;;12.73;2.00;;;;;;;;;;5078050;28;20401;-77
2023/10/14 09:56:41;;;;;;;11.05;1.88;;;;;;;;;;5076617;28;20087;-77
2023/10/14 09:59:08;;;;;;;8.60;1.60;;;;;;;;;;5075992;28;20498;-78
2023/10/14 10:01:34;;;;;;;8.80;1.90;;;;;;;;;;5075236;28;20080;-78
2023/10/14 10:04:12;;;;;;;11.73;1.70;;;;;;;;;;5069238;28;20386;-77
2023/10/14 10:06:43;;;;;;;9.27;1.60;;;;;;;;;;5069532;28;20097;-79
2023/10/14 10:09:09;;;;;;;9.25;1.40;;;;;;;;;;5069398;28;20044;-79
2023/10/14 10:11:36;;;;;;;11.38;1.70;;;;;;;;;;5072614;28;20472;-78
2023/10/14 10:14:05;;;;;;;10.73;1.92;;;;;;;;;;5069168;28;20044;-79
2023/10/14 10:16:33;;;;;;;10.57;1.88;;;;;;;;;;5071475;28;20040;-79
2023/10/14 10:19:00;;;;;;;12.75;1.75;;;;;;;;;;5071845;28;20137;-79
2023/10/14 10:21:29;;;;;;;9.13;1.70;;;;;;;;;;5072286;28;20060;-79
2023/10/14 10:24:00;;;;;;;10.60;1.67;;;;;;;;;;5074048;28;20036;-79
2023/10/14 10:26:26;;;;;;;10.00;2.03;;;;;;;;;;5066434;28;20044;-80
2023/10/14 10:28:52;;;;;;;11.18;1.65;;;;;;;;;;5073136;28;20385;-79
2023/10/14 10:31:23;;;;;;;10.55;1.10;;;;;;;;;;5074072;28;20047;-79
2023/10/14 10:34:02;;;;;;;9.02;1.27;;;;;;;;;;5072454;28;20044;-78
2023/10/14 10:36:32;;;;;;;8.15;1.30;;;;;;;;;;5074006;28;20131;-79
2023/10/14 10:39:15;;;;;;;10.83;1.97;;;;;;;;;;5073755;28;20405;-80
2023/10/14 10:41:42;;;;;;;14.43;1.80;;;;;;;;;;5075880;28;20119;-79
2023/10/14 10:44:12;;;;;;;9.98;1.60;;;;;;;;;;5079063;28;20040;-78
2023/10/14 10:46:44;;;;;;;12.18;2.00;;;;;;;;;;5076906;28;20044;-79
2023/10/14 10:49:11;;;;;;;9.75;1.80;;;;;;;;;;5077234;28;20044;-79
2023/10/14 10:51:58;;;;;;;12.30;1.85;;;;;;;;;;5095820;28;20078;-78
2023/10/14 10:54:24;;;;;;;11.77;2.35;;;;;;;;;;5070237;28;20445;-79
2023/10/14 10:56:50;;;;;;;12.93;1.88;;;;;;;;;;5071078;28;20060;-79
2023/10/14 10:59:17;;;;;;;13.88;1.90;;;;;;;;;;5074685;28;20044;-78
2023/10/14 11:01:43;;;;;;;9.95;1.75;;;;;;;;;;5070553;28;20044;-78
2023/10/14 11:04:09;;;;;;;12.85;1.85;;;;;;;;;;5074836;28;20052;-78
2023/10/14 11:06:36;;;;;;;9.30;1.63;;;;;;;;;;5071188;28;20051;-78
2023/10/14 11:09:03;;;;;;;12.43;1.90;;;;;;;;;;5069795;28;20048;-78
2023/10/14 11:11:33;;;;;;;9.60;1.60;;;;;;;;;;5071850;28;20040;-78
2023/10/14 11:14:03;;;;;;;12.25;1.92;;;;;;;;;;5071832;28;20497;-78
2023/10/14 11:16:29;;;;;;;8.48;1.27;;;;;;;;;;5071973;28;20053;-78
2023/10/14 11:18:56;;;;;;;8.98;1.83;;;;;;;;;;5069939;28;20052;-79
2023/10/14 11:21:27;;;;;;;10.23;1.50;;;;;;;;;;5069826;28;20098;-78
2023/10/14 11:23:53;;;;;;;;;;;;;;;;;;5073186;28;20428;-79
2023/10/14 11:26:20;;;;;;;10.98;1.63;;;;;;;;;;5072098;28;20014;-78
2023/10/14 11:28:48;;;;;;;9.90;1.50;;;;;;;;;;5069825;28;20086;-78
2023/10/14 11:31:14;;;;;;;8.30;1.60;;;;;;;;;;5071988;28;20584;-78
2023/10/14 11:33:45;;;;;;;11.98;1.58;;;;;;;;;;5067465;28;20033;-78
2023/10/14 11:36:17;;;;;;;11.00;2.50;;;;;;;;;;5070991;28;20058;-78
2023/10/14 11:38:44;;;;;;;8.07;1.58;;;;;;;;;;5069595;28;20453;-78
2023/10/14 11:41:12;;;;;;;12.50;1.63;;;;;;;;;;5064643;28;20036;-78
2023/10/14 11:43:42;;;;;;;9.80;1.42;;;;;;;;;;5072881;28;20044;-77
2023/10/14 11:46:10;;;;;;;9.73;1.25;;;;;;;;;;5068407;28;20497;-77
2023/10/14 11:48:38;;;;;;;7.95;1.67;;;;;;;;;;5068097;28;20140;-77
2023/10/14 11:51:11;;;;;;;13.15;2.17;;;;;;;;;;5055083;28;20402;-77
2023/10/14 11:53:38;;;;;;;9.25;1.27;;;;;;;;;;5072425;28;20094;-78
2023/10/14 11:56:04;;;;;;;8.40;1.00;;;;;;;;;;5085680;28;20101;-78
2023/10/14 11:58:37;;;;;;;7.40;0.80;;;;;;;;;;5083369;28;20142;-78
2023/10/14 12:01:06;;;;;;;7.47;1.10;;;;;;;;;;5088498;28;20465;-79
2023/10/14 12:03:32;;;;;;;7.60;1.15;;;;;;;;;;5072758;28;20048;-78
2023/10/14 12:05:58;;;;;;;8.82;1.13;;;;;;;;;;5071956;28;20036;-78
2023/10/14 12:08:28;;;;;;;10.25;1.50;;;;;;;;;;5071879;28;20037;-79
2023/10/14 12:10:56;;;;;;;12.07;1.80;;;;;;;;;;5066726;28;20041;-78
2023/10/14 12:13:23;;;;;;;12.35;1.73;;;;;;;;;;5068942;28;20550;-78
2023/10/14 12:15:50;;;;;;;11.98;2.08;;;;;;;;;;5073394;28;20130;-78
2023/10/14 12:18:16;;;;;;;12.45;1.92;;;;;;;;;;5083088;28;20048;-78
2023/10/14 12:20:48;;;;;;;10.32;1.40;;;;;;;;;;5082845;28;20048;-78
2023/10/14 12:23:19;;;;;;;8.93;1.38;;;;;;;;;;5076839;28;20036;-79
2023/10/14 12:25:46;;;;;;;6.90;1.50;;;;;;;;;;5054558;28;20069;-78
2023/10/14 12:28:17;;;;;;;8.55;1.20;;;;;;;;;;5072584;28;20397;-78
2023/10/14 12:30:43;;;;;;;11.05;1.65;;;;;;;;;;5075540;28;20051;-78
2023/10/14 12:33:18;;;;;;;10.20;1.80;;;;;;;;;;5077548;28;20051;-79
2023/10/14 12:35:45;;;;;;;9.43;1.75;;;;;;;;;;5073370;28;20111;-79
2023/10/14 12:38:15;;;;;;;11.45;1.83;;;;;;;;;;5073398;28;20044;-78
2023/10/14 12:40:43;;;;;;;8.80;1.43;;;;;;;;;;5071849;28;20075;-78
2023/10/14 12:43:12;;;;;;;10.07;1.85;;;;;;;;;;5072007;28;20742;-79
2023/10/14 12:45:38;;;;;;;9.98;1.67;;;;;;;;;;5071699;28;20052;-78
2023/10/14 12:48:11;;;;;;;9.07;1.60;;;;;;;;;;5072581;28;20070;-78
2023/10/14 12:50:40;;;;;;;7.75;1.50;;;;;;;;;;5072430;28;20439;-78
2023/10/14 12:53:08;;;;;;;6.25;1.60;;;;;;;;;;5072334;28;20067;-79
2023/10/14 12:55:36;;;;;;;9.90;1.40;;;;;;;;;;5072101;28;20044;-78
2023/10/14 12:58:07;;;;;;;8.75;1.58;;;;;;;;;;5074186;28;20500;-79
2023/10/14 13:00:35;;;;;;;10.30;1.83;;;;;;;;;;5056479;28;20076;-77
2023/10/14 13:03:05;;;;;;;13.18;2.25;;;;;;;;;;5057219;28;20044;-78
2023/10/14 13:05:31;;;;;;;14.52;2.47;;;;;;;;;;5077527;28;20044;-79
2023/10/14 13:07:57;;;;;;;15.05;2.28;;;;;;;;;;5076543;28;20076;-78
2023/10/14 13:10:24;;;;;;;12.52;2.30;;;;;;;;;;5076179;28;20050;-78
2023/10/14 13:12:51;;;;;;;17.15;2.72;;;;;;;;;;5076039;28;20040;-78
2023/10/14 13:15:25;;;;;;;12.23;2.58;;;;;;;;;;5090829;28;20048;-78
2023/10/14 13:17:55;;;;;;;17.48;2.65;;;;;;;;;;5075281;28;20052;-78
2023/10/14 13:20:26;;;;;;;15.27;2.53;;;;;;;;;;5078283;28;20139;-78
2023/10/14 13:22:52;;;;;;;18.42;2.75;;;;;;;;;;5076062;28;20041;-78
2023/10/14 13:25:18;;;;;;;14.57;2.60;;;;;;;;;;5089680;28;20040;-78
2023/10/14 13:27:44;;;;;;;12.00;2.22;;;;;;;;;;5090214;28;20049;-77
2023/10/14 13:30:15;;;;;;;14.55;2.35;;;;;;;;;;5074555;28;20051;-78
2023/10/14 13:32:41;;;;;;;21.42;3.47;;;;;;;;;;5073228;28;20055;-79
2023/10/14 13:35:08;;;;;;;16.92;2.65;;;;;;;;;;5076193;28;20242;-77
2023/10/14 13:37:34;;;;;;;13.55;2.65;;;;;;;;;;5074172;28;20059;-78
2023/10/14 13:40:00;;;;;;;14.02;2.35;;;;;;;;;;5075314;28;20044;-79
2023/10/14 13:42:26;;;;;;;17.38;2.53;;;;;;;;;;5075021;28;20044;-79
2023/10/14 13:44:52;;;;;;;14.40;2.33;;;;;;;;;;5076687;28;20063;-79
2023/10/14 13:47:18;;;;;;;13.80;2.03;;;;;;;;;;5073477;28;20040;-79
2023/10/14 13:49:45;;;;;;;13.85;2.38;;;;;;;;;;5075853;28;20406;-78
2023/10/14 13:52:16;;;;;;;11.80;2.33;;;;;;;;;;5079998;28;20060;-78
2023/10/14 13:54:42;;;;;;;;;;;;;;;;;;5075536;28;20052;-78
2023/10/14 13:57:11;;;;;;;13.88;2.38;;;;;;;;;;5087080;28;19997;-79
2023/10/14 13:59:40;;;;;;;14.10;2.75;;;;;;;;;;5064234;28;20052;-79
2023/10/14 14:02:06;;;;;;;13.18;2.60;;;;;;;;;;5072408;28;20280;-79
2023/10/14 14:04:33;;;;;;;13.43;2.53;;;;;;;;;;5090971;28;20048;-79
2023/10/14 14:07:01;;;;;;;13.32;2.10;;;;;;;;;;5083536;28;20127;-78
2023/10/14 14:09:30;;;;;;;11.90;2.33;;;;;;;;;;5070467;28;20063;-78
2023/10/14 14:11:56;;;;;;;12.98;2.38;;;;;;;;;;5078309;28;20048;-79
2023/10/14 14:14:23;;;;;;;17.13;2.63;;;;;;;;;;5075748;28;20045;-78
2023/10/14 14:16:49;;;;;;;15.13;2.30;;;;;;;;;;5061949;28;20051;-79
2023/10/14 14:19:18;;;;;;;11.93;2.00;;;;;;;;;;5074301;28;20036;-79
2023/10/14 14:21:46;;;;;;;10.50;2.45;;;;;;;;;;5072576;28;20054;-79
2023/10/14 14:24:12;;;;;;;15.60;2.60;;;;;;;;;;5061685;28;20061;-78
2023/10/14 14:26:39;;;;;;;14.73;2.63;;;;;;;;;;5072813;28;20051;-79
2023/10/14 14:29:09;;;;;;;13.18;2.13;;;;;;;;;;5066222;28;20402;-79
2023/10/14 14:31:35;;;;;;;11.73;2.13;;;;;;;;;;5072975;28;20036;-79
2023/10/14 14:34:01;;;;;;;13.05;2.28;;;;;;;;;;5071670;28;20127;-78
2023/10/14 14:36:27;;;;;;;12.32;1.98;;;;;;;;;;5067492;28;20048;-79
2023/10/14 14:38:54;;;;;;;12.00;1.75;;;;;;;;;;5075271;28;20115;-78
2023/10/14 14:41:25;;;;;;;11.13;1.83;;;;;;;;;;5074202;28;20068;-78
2023/10/14 14:43:52;;;;;;;9.80;1.98;;;;;;;;;;5073648;28;20083;-79
2023/10/14 14:46:18;;;;;;;12.50;1.70;;;;;;;;;;5069714;28;20044;-79
2023/10/14 14:48:44;;;;;;;12.95;2.45;;;;;;;;;;5065769;28;20067;-78
2023/10/14 14:51:11;;;;;;;10.25;2.45;;;;;;;;;;5069176;28;20082;-78
2023/10/14 14:53:37;;;;;;;13.43;2.05;;;;;;;;;;5071037;28;20047;-79
2023/10/14 14:56:10;;;;;;;10.70;1.60;;;;;;;;;;5071778;28;20043;-78
2023/10/14 14:58:36;;;;;;;10.60;2.17;;;;;;;;;;5074384;28;20044;-78
2023/10/14 15:01:03;;;;;;;11.68;2.03;;;;;;;;;;5073604;28;20098;-78
2023/10/14 15:03:29;;;;;;;8.50;1.73;;;;;;;;;;5086649;28;20060;-78
2023/10/14 15:05:56;;;;;;;11.32;1.90;;;;;;;;;;5077157;28;20047;-78
2023/10/14 15:08:23;;;;;;;8.52;1.77;;;;;;;;;;5075154;28;20037;-78